Airfield :
LOGIN :

Register | Disclaimer

   EN    FR    IT 

 










Legend :    VFR   Marginal VFR   IFR   Intensive IFR   Very Intensive IFR
Visi :
Ceiling :
>= 8 km
>= 3000ft
5 to 8 km
1000 to 3000 ft
1500m to 5 km
500 to 1000 ft
800 to 1500m
200 to 500 ft
< 800m
< 200 ft
Symbols :   Thunderstorms  Fog  Heavy snow  Heavy precipitations  Wind > 20 kt
SIGMETs :     Misc.  Thunderstorms  Icing  Turbulence  Mountain Waves  Volcanic Ashes






- Airport Elevation : 16 ft
- IATA code : EAS


LESO - San Sebastian Fuenterrabia

CURRENT METAR :
  • 100730Z 16004KT 140V210 9999 FEW042 08/07 Q1030

EXPIRED METARs :
  • 100700Z 16004KT 9999 SCT044 08/07 Q1030
  • 100630Z VRB02KT 9999 BKN044 09/08 Q1030
  • 100600Z 14003KT 9999 BKN045 09/08 Q1030
  • 100530Z 18003KT 150V210 9999 BKN046 09/08 Q1030
  • 100500Z VRB02KT 9999 BKN048 09/08 Q1030

TAF TAF LESO
Valid from the 10 at 06:00 until the 11 at 06:00 UTC


100500Z 1006/1106 18007KT 9999 SCT040 TX15/1014Z TN07/1007Z



MET'MAP, your aeronautical weather chart ! - Copyright ORBIFLY December 2007 - Disclaimer

ORBIFLY MET'MAP TEAM :

Programming & Development : Alexandra Zaïnal
Concept & original design : Baudouin d'Aumeries
Assistance for programming : Marc-Olivier Méhu
Technical & hardware support : Manuel Goepfert

Contact : metmap@orbifly.com




SOURCES & CREDITS :

   NOAA